Mobile, AL

12:43 PM CDT on August 26, 2016 (GMT -0500)
Canterbury | | Change Station

Elev 105 ft 30.62 °N, 88.19 °W | Updated 6 seconds ago

Mostly Cloudy
Mostly Cloudy
93.3 °F
Feels Like 107 °F
N
0.0
Wind Variable Wind from North
Gusts 1.0 mph

Today
High -- | Low -- °F
--% Chance of Precip.
Yesterday
High -- | Low -- °F
Precip. -- in
Pressure 30.05 in
Visibility 10.0 miles
Clouds Mostly Cloudy 4500 ft
Mostly Cloudy 6000 ft
Mostly Cloudy 25000 ft
Heat Index 107 °F
Dew Point 77 °F
Humidity 59%
Rainfall 0.00 in
Snow Depth Not available.
6:26 AM 7:22 PM
Waning Crescent, 32% visible
METAR KMOB 261656Z 13008KT 10SM BKN045 BKN060 BKN250 32/21 A3006 RMK AO2 SLP175 T03170206
Pressure 30.05 in
Visibility 10.0 miles
Clouds Mostly Cloudy 4500 ft
Mostly Cloudy 6000 ft
Mostly Cloudy 25000 ft
Heat Index 107 °F
Dew Point 77 °F
Humidity 59%
Rainfall 0.00 in
Snow Depth Not available.
6:26 AM 7:22 PM
Waning Crescent, 32% visible
METAR KMOB 261656Z 13008KT 10SM BKN045 BKN060 BKN250 32/21 A3006 RMK AO2 SLP175 T03170206

10-Day Weather Forecast

Almanac

Astronomy

Aug. 26, 2016 Rise Set
Actual Time
Civil Twilight
Nautical Twilight
Astronomical Twilight
Moon
Length of Visible Light
Length of Day
Tomorrow will be .
, % of the Moon is Illuminated

Today's Extremes

State Highs State Lows

Community

WunderPhotos

Upload Photos

1,935,152 photos uploaded!

WunderBlog® & News

Nearby

Air Quality

  Air Quality AQ Index Pollutant
Not available.

Snow Depth

Station Depth Elevation

Earthquake Activity

City Distance Mag. Time & Date
Minimum magnitude displayed is 2.5.

Coastal Water Temperatures

Place Temperature

Stations

Nearby Weather Stations

Station Location Temp. Windchill Dew Point Humidity Wind Precip. Elev Updated Type
                   

Watches & Warnings

There are currently no watches in effect.